Time;durP1;ratioP1;P1;durP2;ratioP2;P2;SDS_P1;SDS_P2;PMS_P1;PMS_P2;Temp;Humidity;BMP_temperature;BMP_pressure;BME280_temperature;BME280_humidity;BME280_pressure;Samples;Min_cycle;Max_cycle;Signal;HPM_P1;HPM_P2
2023/05/19 00:01:25;;;;;;;157.98;140.68;;;22.30;64.10;;;;;;4818775;55;21695;-36
2023/05/19 00:06:30;;;;;;;153.75;137.02;;;22.30;64.20;;;;;;4746902;55;21525;-35
2023/05/19 00:11:32;;;;;;;144.25;128.35;;;22.20;64.00;;;;;;4724841;55;21516;-39
2023/05/19 00:16:34;;;;;;;144.10;128.55;;;22.30;64.10;;;;;;4735177;55;21082;-35
2023/05/19 00:21:39;;;;;;;151.70;135.32;;;22.30;64.10;;;;;;4717220;59;21561;-33
2023/05/19 00:26:40;;;;;;;149.23;133.02;;;22.30;64.20;;;;;;4820746;55;21099;-36
2023/05/19 00:31:40;;;;;;;144.23;128.35;;;22.30;64.10;;;;;;4760430;55;21465;-35
2023/05/19 00:36:41;;;;;;;145.95;130.20;;;22.30;64.10;;;;;;4717729;59;21474;-37
2023/05/19 00:41:42;;;;;;;136.10;121.13;;;22.30;64.10;;;;;;4814966;55;21031;-35
2023/05/19 00:46:43;;;;;;;142.93;127.50;;;22.20;64.00;;;;;;4748654;55;21083;-33
2023/05/19 00:51:45;;;;;;;138.60;123.55;;;22.30;64.80;;;;;;4757444;55;21079;-34
2023/05/19 00:56:45;;;;;;;132.93;118.15;;;22.20;64.00;;;;;;4779816;55;21087;-35
2023/05/19 01:01:48;;;;;;;130.60;116.32;;;22.30;64.70;;;;;;4757278;55;21154;-34
2023/05/19 01:06:53;;;;;;;136.20;121.37;;;22.20;64.00;;;;;;4731309;55;21615;-35
2023/05/19 01:11:54;;;;;;;130.05;115.43;;;22.20;64.10;;;;;;4789457;55;21477;-36
2023/05/19 01:17:16;;;;;;;128.27;114.07;;;22.30;64.00;;;;;;4747031;55;21158;-35
2023/05/19 01:22:45;;;;;;;127.18;113.35;;;22.20;64.10;;;;;;4747254;55;21031;-37
2023/05/19 01:29:40;;;;;;;130.10;116.28;;;22.20;64.00;;;;;;4717437;59;21122;-33
2023/05/19 01:34:43;;;;;;;128.32;114.60;;;22.20;64.00;;;;;;4717877;56;21050;-34
2023/05/19 01:39:45;;;;;;;126.55;113.07;;;22.20;64.00;;;;;;4717688;59;21071;-35
2023/05/19 01:44:46;;;;;;;124.60;111.20;;;22.20;64.00;;;;;;4717818;59;20984;-36
2023/05/19 01:49:47;;;;;;;118.90;106.10;;;22.20;64.00;;;;;;4791481;55;21096;-32
2023/05/19 01:54:48;;;;;;;113.45;100.97;;;22.20;64.00;;;;;;4789476;55;21086;-37
2023/05/19 02:00:17;;;;;;;117.62;104.93;;;22.20;64.00;;;;;;4744730;55;21074;-36
2023/05/19 02:05:46;;;;;;;117.55;105.00;;;22.20;64.10;;;;;;4749770;55;21127;-36
2023/05/19 02:10:56;;;;;;;114.45;102.38;;;22.20;64.00;;;;;;4785157;55;21098;-35
2023/05/19 02:16:02;;;;;;;120.05;107.10;;;22.20;64.10;;;;;;4726119;55;21034;-36
2023/05/19 02:21:03;;;;;;;112.80;100.70;;;22.20;64.00;;;;;;4736566;55;21083;-35
2023/05/19 02:26:04;;;;;;;116.90;104.53;;;22.20;64.00;;;;;;4761354;55;20991;-36
2023/05/19 02:31:07;;;;;;;109.63;97.78;;;22.20;64.00;;;;;;4841189;55;21471;-38
2023/05/19 02:36:08;;;;;;;113.93;101.78;;;22.20;64.00;;;;;;4750501;55;21532;-35
2023/05/19 02:41:09;;;;;;;101.55;90.55;;;22.20;63.90;;;;;;4717618;56;21458;-36
2023/05/19 02:46:10;;;;;;;105.70;94.37;;;22.20;64.00;;;;;;4751662;55;21020;-35
2023/05/19 02:51:11;;;;;;;104.45;93.07;;;22.20;64.00;;;;;;4774789;55;21051;-35
2023/05/19 02:56:12;;;;;;;103.97;92.78;;;22.20;63.90;;;;;;4841053;55;21003;-37
2023/05/19 03:01:13;;;;;;;105.00;93.75;;;22.20;64.30;;;;;;4741289;55;21043;-36
2023/05/19 03:06:14;;;;;;;104.43;93.28;;;22.20;64.00;;;;;;4717987;59;21482;-37
2023/05/19 03:11:15;;;;;;;95.65;85.43;;;22.20;64.10;;;;;;4720458;55;21573;-36
2023/05/19 03:16:16;;;;;;;97.65;87.15;;;22.20;64.00;;;;;;4765314;55;21462;-35
2023/05/19 03:21:17;;;;;;;100.30;89.72;;;22.20;64.00;;;;;;4725485;55;21091;-35
2023/05/19 03:26:18;;;;;;;100.93;90.12;;;22.20;64.10;;;;;;4754152;55;21003;-36
2023/05/19 03:31:20;;;;;;;96.82;86.70;;;22.20;64.00;;;;;;4736758;55;21027;-36
2023/05/19 03:36:21;;;;;;;98.07;87.75;;;22.20;64.10;;;;;;4759666;55;21023;-36
2023/05/19 03:41:22;;;;;;;95.57;85.45;;;22.20;64.00;;;;;;4773444;55;21039;-35
2023/05/19 03:46:23;;;;;;;89.72;80.12;;;22.20;64.00;;;;;;4772761;55;21015;-36
2023/05/19 03:51:24;;;;;;;93.35;83.47;;;22.20;64.00;;;;;;4738829;55;21034;-34
2023/05/19 03:56:26;;;;;;;90.03;80.30;;;22.20;64.00;;;;;;4785663;55;21336;-37
2023/05/19 04:01:27;;;;;;;91.10;81.40;;;22.20;64.10;;;;;;4717484;59;21663;-35
2023/05/19 04:06:28;;;;;;;90.35;80.65;;;22.20;64.10;;;;;;4717625;59;21107;-37
2023/05/19 04:11:29;;;;;;;90.30;80.70;;;22.20;64.20;;;;;;4721718;55;21521;-35
2023/05/19 04:16:30;;;;;;;89.85;80.38;;;22.20;64.20;;;;;;4723936;55;21521;-35
2023/05/19 04:21:30;;;;;;;84.75;75.68;;;22.20;64.20;;;;;;4766468;55;21035;-36
2023/05/19 04:26:33;;;;;;;84.30;75.18;;;22.20;64.30;;;;;;4717834;57;21043;-35
2023/05/19 04:31:34;;;;;;;81.22;72.68;;;22.10;64.20;;;;;;4729269;55;21478;-35
2023/05/19 04:36:36;;;;;;;82.10;73.30;;;22.10;64.20;;;;;;4855605;55;21478;-37
2023/05/19 04:41:39;;;;;;;80.87;72.30;;;22.20;64.30;;;;;;4717098;59;21585;-35
2023/05/19 04:46:43;;;;;;;79.47;70.97;;;22.20;64.30;;;;;;4748797;55;21961;-36
2023/05/19 04:51:44;;;;;;;81.90;72.90;;;22.10;64.30;;;;;;4717640;59;21481;-38
2023/05/19 04:56:45;;;;;;;77.35;69.25;;;22.20;64.20;;;;;;4810806;55;21004;-37
2023/05/19 05:01:46;;;;;;;78.90;70.45;;;22.20;64.20;;;;;;4738987;55;21119;-38
2023/05/19 05:06:47;;;;;;;75.53;67.57;;;22.20;64.20;;;;;;4721976;55;21500;-36
2023/05/19 05:11:50;;;;;;;76.80;68.72;;;22.10;64.20;;;;;;4734159;55;21490;-35
2023/05/19 05:16:51;;;;;;;77.32;69.32;;;22.10;64.10;;;;;;4725241;55;21522;-35
2023/05/19 05:21:53;;;;;;;75.12;67.25;;;22.10;64.10;;;;;;4752105;55;21020;-42
2023/05/19 05:26:54;;;;;;;74.70;66.80;;;22.10;64.10;;;;;;4725307;55;21544;-34
2023/05/19 05:31:55;;;;;;;71.18;63.53;;;22.10;64.10;;;;;;4771435;55;21123;-34
2023/05/19 05:36:55;;;;;;;73.57;65.87;;;22.10;64.00;;;;;;4732713;55;21486;-34
2023/05/19 05:41:56;;;;;;;68.75;61.45;;;22.10;64.00;;;;;;4716291;59;21039;-36
2023/05/19 05:46:58;;;;;;;69.87;62.42;;;22.10;63.90;;;;;;4791578;55;21466;-35
2023/05/19 05:52:00;;;;;;;69.50;62.00;;;22.10;63.90;;;;;;4731636;55;21467;-35
2023/05/19 05:57:02;;;;;;;67.20;59.97;;;22.10;63.90;;;;;;4822026;55;21003;-37
2023/05/19 06:02:03;;;;;;;64.97;58.03;;;22.10;63.80;;;;;;4747711;55;21529;-37
2023/05/19 06:07:04;;;;;;;66.80;59.60;;;22.10;63.90;;;;;;4770857;55;21023;-36
2023/05/19 06:12:06;;;;;;;64.47;57.55;;;22.10;63.80;;;;;;4776542;55;21502;-37
2023/05/19 06:17:06;;;;;;;63.90;57.13;;;22.10;63.70;;;;;;4725553;55;21162;-37
2023/05/19 06:22:07;;;;;;;61.03;54.53;;;22.10;63.80;;;;;;4739511;55;21091;-37
2023/05/19 06:27:08;;;;;;;63.08;56.28;;;22.10;63.80;;;;;;4719102;55;21019;-37
2023/05/19 06:32:09;;;;;;;63.90;56.97;;;22.10;63.70;;;;;;4735063;55;21064;-36
2023/05/19 06:37:10;;;;;;;62.90;56.20;;;22.10;63.60;;;;;;4739782;55;21055;-35
2023/05/19 06:42:11;;;;;;;62.70;55.83;;;22.10;63.60;;;;;;4715787;55;21035;-37
2023/05/19 06:47:11;;;;;;;62.25;55.55;;;22.10;63.50;;;;;;4753464;55;21492;-37
2023/05/19 06:52:12;;;;;;;60.90;54.35;;;22.10;63.50;;;;;;4716267;59;21051;-35
2023/05/19 06:57:13;;;;;;;59.20;52.90;;;22.10;63.50;;;;;;4720734;55;21545;-35
2023/05/19 07:02:14;;;;;;;59.20;52.80;;;22.10;63.40;;;;;;4718005;55;21059;-34
2023/05/19 07:07:15;;;;;;;61.10;54.53;;;22.10;63.20;;;;;;4754338;55;21054;-33
2023/05/19 07:12:15;;;;;;;56.20;49.92;;;22.20;63.20;;;;;;4770938;55;21091;-31
2023/05/19 07:17:16;;;;;;;61.15;51.28;;;22.20;62.90;;;;;;4724173;55;21074;-35
2023/05/19 07:22:17;;;;;;;54.63;48.35;;;22.20;62.70;;;;;;4725156;55;21101;-30
2023/05/19 07:27:18;;;;;;;53.70;47.72;;;22.30;62.50;;;;;;4745031;55;21039;-34
2023/05/19 07:32:19;;;;;;;58.50;45.58;;;22.40;62.40;;;;;;4728334;55;21110;-39
2023/05/19 07:37:20;;;;;;;56.70;45.42;;;22.40;61.90;;;;;;4725839;55;21010;-35
2023/05/19 07:42:21;;;;;;;51.63;43.30;;;22.40;62.00;;;;;;4741360;55;21568;-35
2023/05/19 07:47:22;;;;;;;49.97;41.65;;;22.40;61.70;;;;;;4715482;59;21086;-35
2023/05/19 07:52:22;;;;;;;50.90;43.53;;;22.50;61.40;;;;;;4716910;55;21570;-35
2023/05/19 07:57:23;;;;;;;46.25;40.33;;;22.50;61.40;;;;;;4737333;55;21051;-33
2023/05/19 08:02:24;;;;;;;50.15;41.10;;;22.50;61.90;;;;;;4755403;55;21376;-34
2023/05/19 08:07:25;;;;;;;49.67;42.25;;;22.60;61.30;;;;;;4715517;59;21097;-35
2023/05/19 08:12:26;;;;;;;47.78;41.30;;;22.60;61.30;;;;;;4732346;55;21051;-38
2023/05/19 08:17:27;;;;;;;49.80;41.63;;;22.60;61.10;;;;;;4715507;55;21095;-37
2023/05/19 08:22:27;;;;;;;58.28;44.35;;;22.60;61.10;;;;;;4729680;55;21137;-35
2023/05/19 08:27:28;;;;;;;54.00;44.83;;;22.60;60.90;;;;;;4805149;55;21031;-33
2023/05/19 08:45:20;;;;;;;55.63;43.58;;;22.60;60.10;;;;;;4702248;55;28269;-33
2023/05/19 08:50:27;;;;;;;55.60;43.92;;;22.70;60.70;;;;;;4761709;55;21089;-34
2023/05/19 08:55:52;;;;;;;64.32;47.90;;;22.70;60.50;;;;;;4749839;55;21544;-35
2023/05/19 09:00:54;;;;;;;63.13;47.33;;;22.70;60.60;;;;;;4739700;58;21451;-31
2023/05/19 09:05:55;;;;;;;60.28;46.53;;;22.70;60.50;;;;;;4769016;55;21064;-34
2023/05/19 09:10:55;;;;;;;62.28;46.53;;;22.70;60.40;;;;;;4739488;58;21114;-35
2023/05/19 09:15:57;;;;;;;70.10;49.65;;;22.70;60.50;;;;;;4771409;54;21065;-34
2023/05/19 09:20:59;;;;;;;66.65;48.87;;;22.70;60.50;;;;;;4810600;55;21009;-34
2023/05/19 09:26:07;;;;;;;68.32;50.28;;;22.70;60.50;;;;;;4784174;55;21467;-35
2023/05/19 09:31:09;;;;;;;67.12;49.22;;;22.70;60.50;;;;;;4742979;55;21058;-34
2023/05/19 09:36:11;;;;;;;61.75;47.45;;;22.70;60.40;;;;;;4786615;55;21502;-33
2023/05/19 09:41:13;;;;;;;63.50;48.72;;;22.80;60.60;;;;;;4800174;55;21483;-32
2023/05/19 09:46:14;;;;;;;68.57;52.65;;;22.80;60.60;;;;;;4746766;54;21017;-35
2023/05/19 09:51:20;;;;;;;73.15;53.85;;;22.80;60.60;;;;;;4748715;55;21053;-34
2023/05/19 09:56:24;;;;;;;72.25;56.25;;;22.80;60.50;;;;;;4738205;59;21586;-32
2023/05/19 10:01:25;;;;;;;75.97;56.78;;;22.80;60.50;;;;;;4763684;55;21129;-29
2023/05/19 10:06:26;;;;;;;82.22;59.35;;;22.80;60.50;;;;;;4738217;59;21061;-33
2023/05/19 10:11:29;;;;;;;75.03;57.10;;;22.80;60.50;;;;;;4751385;55;22243;-34
2023/05/19 10:16:31;;;;;;;77.03;59.08;;;22.80;60.60;;;;;;4759957;55;21097;-34
2023/05/19 10:21:33;;;;;;;79.93;60.17;;;22.80;60.60;;;;;;4737425;59;21114;-35
2023/05/19 10:26:35;;;;;;;79.95;62.50;;;22.90;60.60;;;;;;4789568;55;21081;-34
2023/05/19 10:31:39;;;;;;;85.90;63.83;;;22.80;60.60;;;;;;4737807;59;21093;-33
2023/05/19 10:36:58;;;;;;;87.95;64.43;;;22.90;60.70;;;;;;4818911;55;22507;-36
2023/05/19 10:42:36;;;;;;;86.72;64.12;;;22.80;60.90;;;;;;4779771;55;21478;-33
2023/05/19 10:47:39;;;;;;;84.78;64.47;;;22.80;61.20;;;;;;4738179;55;21182;-33
2023/05/19 10:52:40;;;;;;;86.28;66.35;;;22.90;61.20;;;;;;4749389;55;21089;-34
2023/05/19 10:57:56;;;;;;;95.30;68.62;;;22.90;61.20;;;;;;4768453;55;21542;-33
2023/05/19 11:04:00;;;;;;;94.82;69.72;;;22.80;61.10;;;;;;4744088;55;21774;-30
2023/05/19 11:09:38;;;;;;;97.80;69.28;;;22.80;61.10;;;;;;4756665;55;22019;-33
2023/05/19 11:14:40;;;;;;;93.97;65.18;;;22.80;61.20;;;;;;4737838;59;21096;-33
2023/05/19 11:19:53;;;;;;;94.03;66.45;;;22.80;61.10;;;;;;4738531;59;21543;-37
2023/05/19 11:24:54;;;;;;;89.70;65.68;;;22.80;61.10;;;;;;4752008;55;21527;-34
2023/05/19 11:30:05;;;;;;;102.60;72.32;;;22.70;61.10;;;;;;4776604;54;21100;-30
2023/05/19 11:35:10;;;;;;;95.55;73.25;;;22.80;61.10;;;;;;4811329;55;21619;-35
2023/05/19 11:40:14;;;;;;;101.95;74.45;;;22.70;61.10;;;;;;4780706;55;21955;-33
2023/05/19 11:45:15;;;;;;;99.25;73.47;;;22.80;60.80;;;;;;4738477;55;21593;-33
2023/05/19 11:50:16;;;;;;;102.93;73.90;;;22.80;61.00;;;;;;4737652;56;21190;-33
2023/05/19 11:55:24;;;;;;;108.40;79.25;;;22.80;61.10;;;;;;4742607;55;21081;-35
2023/05/19 12:00:25;;;;;;;104.35;76.40;;;22.90;61.10;;;;;;4749571;55;21543;-31
2023/05/19 12:05:27;;;;;;;99.72;75.90;;;22.90;61.20;;;;;;4794097;55;21081;-32
2023/05/19 12:10:32;;;;;;;99.87;76.18;;;22.80;61.30;;;;;;4788733;55;21486;-34
2023/05/19 12:15:33;;;;;;;97.15;73.15;;;22.90;61.40;;;;;;4756975;55;21045;-33
2023/05/19 12:20:34;;;;;;;101.32;70.93;;;22.90;61.40;;;;;;4752822;55;21085;-31
2023/05/19 12:25:37;;;;;;;107.85;74.10;;;22.80;61.40;;;;;;4738190;55;22514;-38
2023/05/19 12:30:38;;;;;;;101.68;69.00;;;22.90;61.60;;;;;;4780801;55;21710;-34
2023/05/19 12:35:38;;;;;;;106.68;70.50;;;22.90;61.50;;;;;;4741476;55;21050;-32
2023/05/19 12:40:39;;;;;;;105.93;70.70;;;22.90;61.60;;;;;;4746828;55;21116;-30
2023/05/19 12:45:41;;;;;;;104.18;69.00;;;22.90;61.60;;;;;;4770690;55;21342;-37
2023/05/19 12:50:45;;;;;;;107.47;66.62;;;23.00;61.70;;;;;;4779216;55;22125;-36
2023/05/19 12:55:46;;;;;;;110.82;70.53;;;23.00;61.60;;;;;;4740786;55;21397;-36
2023/05/19 13:00:48;;;;;;;108.75;66.37;;;23.00;61.60;;;;;;4758455;55;21030;-36
2023/05/19 13:05:50;;;;;;;112.85;68.72;;;23.00;61.80;;;;;;4747766;55;21494;-32
2023/05/19 13:10:51;;;;;;;109.63;67.20;;;23.00;61.90;;;;;;4747703;55;21045;-34
2023/05/19 13:15:52;;;;;;;107.82;67.10;;;23.00;62.00;;;;;;4762328;55;21073;-34
2023/05/19 13:20:53;;;;;;;108.60;65.95;;;23.00;62.20;;;;;;4738239;59;21025;-35
2023/05/19 13:25:54;;;;;;;101.28;66.50;;;23.00;62.10;;;;;;4744699;54;21077;-31
2023/05/19 13:30:55;;;;;;;97.40;65.50;;;23.00;62.10;;;;;;4761168;55;21049;-33
2023/05/19 13:35:56;;;;;;;95.65;63.33;;;23.00;62.00;;;;;;4747707;55;22237;-34
2023/05/19 13:53:50;;;;;;;76.68;57.90;;;23.10;61.60;;;;;;4767056;54;28433;-42
2023/05/19 13:58:53;;;;;;;81.75;60.12;;;22.90;62.50;;;;;;4854906;54;21543;-35
2023/05/19 14:03:54;;;;;;;85.80;60.75;;;22.90;62.70;;;;;;4818772;54;21488;-34
2023/05/19 14:08:55;;;;;;;87.50;59.63;;;22.80;62.90;;;;;;4799286;58;21006;-36
2023/05/19 14:13:56;;;;;;;81.95;57.22;;;22.80;63.00;;;;;;4850086;54;21014;-35
2023/05/19 14:18:57;;;;;;;83.62;59.72;;;22.70;63.10;;;;;;4856681;54;21215;-34
2023/05/19 14:23:58;;;;;;;81.45;58.22;;;22.70;62.90;;;;;;4892014;54;21516;-36
2023/05/19 14:28:59;;;;;;;85.78;59.97;;;22.70;63.10;;;;;;4837334;54;21054;-36
2023/05/19 14:34:00;;;;;;;79.60;58.30;;;22.70;62.90;;;;;;4896930;54;21495;-35
2023/05/19 14:39:01;;;;;;;81.30;57.88;;;22.80;63.00;;;;;;4811884;54;21014;-36
2023/05/19 14:44:02;;;;;;;75.97;55.47;;;22.70;62.90;;;;;;4788990;55;21021;-35
2023/05/19 14:49:03;;;;;;;79.80;57.72;;;22.70;63.20;;;;;;4751489;55;21005;-34
2023/05/19 14:54:03;;;;;;;82.78;58.45;;;22.70;63.70;;;;;;4763200;55;21490;-35
2023/05/19 14:59:04;;;;;;;73.57;55.97;;;22.70;63.20;;;;;;4739761;59;21022;-35
2023/05/19 15:04:05;;;;;;;78.03;57.45;;;22.60;63.30;;;;;;4740184;59;21475;-35
2023/05/19 15:09:06;;;;;;;76.70;53.75;;;22.60;63.30;;;;;;4774205;55;21025;-38
2023/05/19 15:14:07;;;;;;;72.10;54.85;;;22.60;63.40;;;;;;4739982;59;21550;-36
2023/05/19 15:19:08;;;;;;;78.72;55.30;;;22.60;63.40;;;;;;4760548;55;21105;-34
2023/05/19 15:24:09;;;;;;;73.57;53.22;;;22.60;63.20;;;;;;4739991;59;21080;-38
2023/05/19 15:29:10;;;;;;;75.25;55.08;;;22.60;63.30;;;;;;4748676;55;21193;-36
2023/05/19 15:34:12;;;;;;;74.30;53.87;;;22.60;63.30;;;;;;4739913;59;21030;-35
2023/05/19 15:39:13;;;;;;;68.10;51.88;;;22.60;63.50;;;;;;4746738;55;21634;-35
2023/05/19 15:44:13;;;;;;;75.95;53.13;;;22.60;63.50;;;;;;4818921;55;21518;-37
2023/05/19 15:49:16;;;;;;;74.00;52.42;;;22.60;63.40;;;;;;4739999;55;21068;-35
2023/05/19 15:54:17;;;;;;;73.55;51.85;;;22.60;63.50;;;;;;4887547;55;21475;-36
2023/05/19 15:59:18;;;;;;;74.18;53.30;;;22.60;63.50;;;;;;4799234;55;21088;-35
2023/05/19 16:04:19;;;;;;;73.00;54.35;;;22.60;63.50;;;;;;4838567;55;21009;-39
2023/05/19 16:09:19;;;;;;;68.40;52.40;;;22.60;63.70;;;;;;4932261;55;21034;-36
2023/05/19 16:14:21;;;;;;;69.07;52.45;;;22.50;63.70;;;;;;4792968;55;21677;-36
2023/05/19 16:19:22;;;;;;;70.62;53.65;;;22.60;63.70;;;;;;4800063;55;21475;-36
2023/05/19 16:24:23;;;;;;;66.47;49.17;;;22.50;63.70;;;;;;4986137;55;21543;-36
2023/05/19 16:29:24;;;;;;;62.30;48.38;;;22.50;63.70;;;;;;4955274;55;21017;-37
2023/05/19 16:34:25;;;;;;;63.60;48.70;;;22.50;63.70;;;;;;4770000;55;21567;-36
2023/05/19 16:39:26;;;;;;;64.70;49.45;;;22.50;63.60;;;;;;4786287;55;21045;-35
2023/05/19 16:44:26;;;;;;;67.07;50.75;;;22.50;63.70;;;;;;4827530;55;21075;-37
2023/05/19 16:49:27;;;;;;;66.10;49.70;;;22.50;63.70;;;;;;4739770;59;21085;-35
2023/05/19 16:54:28;;;;;;;58.35;45.88;;;22.60;63.70;;;;;;4754285;54;21570;-34
2023/05/19 16:59:29;;;;;;;62.78;48.42;;;22.50;63.70;;;;;;4785254;55;21116;-35
2023/05/19 17:04:30;;;;;;;63.28;49.08;;;22.50;63.80;;;;;;4739938;59;21089;-36
2023/05/19 17:09:30;;;;;;;56.75;44.17;;;22.50;63.70;;;;;;4755581;55;21033;-39
2023/05/19 17:14:31;;;;;;;60.50;48.75;;;22.50;63.80;;;;;;4781772;54;21005;-37
2023/05/19 17:19:32;;;;;;;61.00;48.75;;;22.50;63.90;;;;;;4752317;55;21037;-35
2023/05/19 17:24:33;;;;;;;60.63;46.85;;;22.50;63.80;;;;;;4811584;54;21562;-33
2023/05/19 17:29:34;;;;;;;58.08;44.67;;;22.50;63.90;;;;;;4758679;55;21394;-38
2023/05/19 17:34:35;;;;;;;56.22;43.67;;;22.50;64.00;;;;;;4751820;55;22278;-36
2023/05/19 17:39:35;;;;;;;55.67;44.15;;;22.50;64.00;;;;;;4739651;59;21177;-37
2023/05/19 17:44:36;;;;;;;59.00;46.75;;;22.50;64.00;;;;;;4764005;55;21506;-35
2023/05/19 17:49:38;;;;;;;58.05;45.53;;;22.50;64.70;;;;;;4746042;55;21021;-36
2023/05/19 17:54:40;;;;;;;61.63;47.90;;;22.50;63.80;;;;;;4740188;59;21540;-35
2023/05/19 17:59:41;;;;;;;55.58;44.75;;;22.50;63.80;;;;;;4740245;55;21586;-34
2023/05/19 18:04:42;;;;;;;55.90;44.33;;;22.50;63.90;;;;;;4780446;55;21734;-34
2023/05/19 18:09:45;;;;;;;53.65;43.67;;;22.50;64.00;;;;;;4778728;55;21505;-35
2023/05/19 18:14:46;;;;;;;56.88;45.65;;;22.50;64.10;;;;;;4771710;55;21057;-35
2023/05/19 18:19:48;;;;;;;55.47;43.83;;;22.50;64.00;;;;;;4739741;59;21136;-37
2023/05/19 18:24:49;;;;;;;54.88;44.75;;;22.40;64.00;;;;;;4747910;55;21519;-36
2023/05/19 18:29:50;;;;;;;55.30;43.70;;;22.40;64.10;;;;;;4764361;55;21444;-34
2023/05/19 18:34:50;;;;;;;53.17;41.35;;;22.50;64.10;;;;;;4773358;55;21002;-36
2023/05/19 18:39:51;;;;;;;49.90;41.20;;;22.40;64.00;;;;;;4740180;59;21585;-36
2023/05/19 18:44:52;;;;;;;54.58;43.50;;;22.50;64.10;;;;;;4755876;55;21006;-34
2023/05/19 18:49:53;;;;;;;49.20;39.30;;;22.40;64.10;;;;;;4806325;55;21503;-35
2023/05/19 18:54:54;;;;;;;46.40;38.95;;;22.50;64.10;;;;;;4750022;55;20998;-36
2023/05/19 18:59:55;;;;;;;50.40;40.75;;;22.50;64.00;;;;;;4757936;55;21029;-35
2023/05/19 19:04:56;;;;;;;51.33;42.55;;;22.40;64.10;;;;;;4742980;55;21487;-36
2023/05/19 19:09:57;;;;;;;52.47;43.15;;;22.40;64.00;;;;;;4782152;55;21029;-34
2023/05/19 19:14:57;;;;;;;53.15;40.90;;;22.40;64.10;;;;;;4753936;55;21029;-34
2023/05/19 19:19:58;;;;;;;45.50;39.13;;;22.40;64.10;;;;;;4785661;55;21041;-36
2023/05/19 19:24:59;;;;;;;51.88;41.55;;;22.40;64.10;;;;;;4756850;54;21483;-36
2023/05/19 19:30:00;;;;;;;47.38;40.20;;;22.40;64.10;;;;;;4864129;55;21121;-38
2023/05/19 19:35:01;;;;;;;50.92;41.22;;;22.40;64.20;;;;;;4805056;55;21073;-36
2023/05/19 19:40:02;;;;;;;50.25;40.60;;;22.50;64.20;;;;;;4745668;55;21538;-35
2023/05/19 19:45:05;;;;;;;44.35;38.28;;;22.40;64.20;;;;;;4755619;55;21025;-36
2023/05/19 19:50:06;;;;;;;46.65;38.00;;;22.40;64.20;;;;;;4743607;55;21005;-35
2023/05/19 19:55:08;;;;;;;50.33;40.78;;;22.40;64.20;;;;;;4742523;55;21160;-35
2023/05/19 20:00:10;;;;;;;45.45;38.97;;;22.40;64.20;;;;;;4773762;55;21538;-35
2023/05/19 20:05:11;;;;;;;41.20;36.22;;;22.40;64.20;;;;;;4770931;55;21311;-34
2023/05/19 20:10:12;;;;;;;44.78;37.75;;;22.40;64.20;;;;;;4802080;55;21081;-35
2023/05/19 20:15:14;;;;;;;45.70;38.38;;;22.40;64.20;;;;;;4740623;59;21527;-37
2023/05/19 20:20:15;;;;;;;44.40;37.55;;;22.40;64.30;;;;;;4775159;55;21093;-36
2023/05/19 20:25:15;;;;;;;43.25;36.53;;;22.40;64.20;;;;;;4773108;55;21803;-35
2023/05/19 20:30:16;;;;;;;45.78;38.38;;;22.30;64.30;;;;;;4779626;55;21311;-38
2023/05/19 20:35:17;;;;;;;44.53;37.05;;;22.40;64.30;;;;;;4764098;55;21049;-37
2023/05/19 20:40:18;;;;;;;42.53;36.40;;;22.30;64.20;;;;;;4740161;59;21180;-36
2023/05/19 20:45:20;;;;;;;44.60;36.67;;;22.40;64.30;;;;;;4739893;59;21006;-37
2023/05/19 20:50:21;;;;;;;46.47;38.67;;;22.30;64.20;;;;;;4795230;55;21504;-34
2023/05/19 20:55:24;;;;;;;44.58;37.80;;;22.40;64.30;;;;;;4815941;55;21025;-37
2023/05/19 21:00:25;;;;;;;44.38;38.47;;;22.30;64.20;;;;;;4739545;59;21025;-36
2023/05/19 21:05:26;;;;;;;45.45;39.22;;;22.40;64.30;;;;;;4892772;55;21009;-36
2023/05/19 21:10:27;;;;;;;43.65;37.50;;;22.40;64.30;;;;;;4785298;54;21095;-35
2023/05/19 21:15:27;;;;;;;43.87;36.97;;;22.40;64.30;;;;;;4745260;54;20997;-36
2023/05/19 21:20:31;;;;;;;42.67;35.35;;;22.40;64.30;;;;;;4825251;55;21066;-36
2023/05/19 21:25:32;;;;;;;42.47;35.90;;;22.30;64.30;;;;;;4755323;55;21058;-35
2023/05/19 21:30:33;;;;;;;43.35;36.45;;;22.30;64.30;;;;;;4744793;55;21405;-36
2023/05/19 21:35:33;;;;;;;42.62;37.17;;;22.30;64.30;;;;;;4782844;55;21475;-36
2023/05/19 21:40:34;;;;;;;40.30;35.90;;;22.40;64.30;;;;;;4759475;55;21053;-38
2023/05/19 21:45:36;;;;;;;42.72;36.22;;;22.30;64.30;;;;;;4746232;55;21085;-35
2023/05/19 21:50:37;;;;;;;42.80;36.00;;;22.30;64.30;;;;;;4887481;55;21479;-35
2023/05/19 21:55:38;;;;;;;38.88;34.05;;;22.30;64.20;;;;;;4744378;55;21578;-36
2023/05/19 22:00:39;;;;;;;38.75;33.55;;;22.30;64.30;;;;;;4780928;55;21160;-38
2023/05/19 22:05:40;;;;;;;43.70;36.67;;;22.30;64.30;;;;;;4884848;55;21009;-38
2023/05/19 22:10:41;;;;;;;40.40;35.45;;;22.30;64.30;;;;;;4782494;55;21009;-36
2023/05/19 22:15:42;;;;;;;39.90;34.55;;;22.30;64.20;;;;;;4764823;54;21014;-34
2023/05/19 22:20:42;;;;;;;40.15;35.72;;;22.30;64.30;;;;;;4774098;55;21089;-32
2023/05/19 22:25:43;;;;;;;40.47;33.83;;;22.30;64.30;;;;;;4740568;54;21006;-35
2023/05/19 22:30:44;;;;;;;39.17;34.28;;;22.30;64.30;;;;;;4831264;55;21017;-34
2023/05/19 22:35:45;;;;;;;39.85;34.97;;;22.30;64.30;;;;;;4740639;59;21018;-37
2023/05/19 22:40:48;;;;;;;36.20;32.30;;;22.30;64.30;;;;;;4744786;55;21606;-36
2023/05/19 22:45:49;;;;;;;38.50;33.33;;;22.30;64.30;;;;;;4779531;55;21092;-36
2023/05/19 22:50:50;;;;;;;41.20;34.95;;;22.30;64.30;;;;;;4740204;55;21025;-37
2023/05/19 22:55:50;;;;;;;38.45;34.25;;;22.30;64.30;;;;;;4779675;55;21065;-39
2023/05/19 23:00:51;;;;;;;39.03;34.63;;;22.30;64.30;;;;;;4739659;59;21372;-35
2023/05/19 23:05:52;;;;;;;36.92;32.50;;;22.30;64.30;;;;;;4841649;55;21034;-36
2023/05/19 23:10:58;;;;;;;37.97;33.15;;;22.30;64.30;;;;;;4748725;55;21089;-36
2023/05/19 23:16:01;;;;;;;39.38;33.50;;;22.30;64.30;;;;;;4816743;55;21511;-33
2023/05/19 23:21:02;;;;;;;36.80;32.58;;;22.30;64.30;;;;;;4837816;55;21041;-36
2023/05/19 23:26:03;;;;;;;37.00;33.00;;;22.30;64.30;;;;;;4768220;55;21610;-37
2023/05/19 23:31:04;;;;;;;36.78;31.92;;;22.30;64.30;;;;;;4744553;55;21124;-35
2023/05/19 23:36:06;;;;;;;34.85;31.02;;;22.30;64.30;;;;;;4757954;55;21096;-36
2023/05/19 23:41:07;;;;;;;34.67;30.92;;;22.30;64.30;;;;;;4739959;59;21113;-36
2023/05/19 23:46:08;;;;;;;37.08;32.85;;;22.30;64.30;;;;;;4813195;55;21491;-35
2023/05/19 23:51:09;;;;;;;37.72;32.63;;;22.30;64.20;;;;;;4740083;59;21049;-35
2023/05/19 23:56:10;;;;;;;36.92;33.00;;;22.30;64.30;;;;;;4740586;59;21495;-34
